createdAt,value
2023-02-18T00:01:45.718Z,14.47
2023-02-18T00:04:52.046Z,20.73
2023-02-18T00:07:59.974Z,18.70
2023-02-18T00:11:06.937Z,14.67
2023-02-18T00:14:15.698Z,11.37
2023-02-18T00:17:21.783Z,7.97
2023-02-18T00:20:28.290Z,7.97
2023-02-18T00:23:36.253Z,9.13
2023-02-18T00:26:43.125Z,9.33
2023-02-18T00:29:49.494Z,10.53
2023-02-18T00:32:55.912Z,11.83
2023-02-18T00:36:03.893Z,12.80
2023-02-18T00:39:12.802Z,11.60
2023-02-18T00:42:18.946Z,11.70
2023-02-18T00:45:25.369Z,8.67
2023-02-18T00:48:31.640Z,8.77
2023-02-18T00:51:38.121Z,9.60
2023-02-18T00:54:46.083Z,6.57
2023-02-18T00:57:52.555Z,9.27
2023-02-18T01:00:59.196Z,9.63
2023-02-18T01:04:05.829Z,10.00
2023-02-18T01:07:12.250Z,6.80
2023-02-18T01:10:19.916Z,7.23
2023-02-18T01:13:27.345Z,7.33
2023-02-18T01:16:33.498Z,6.97
2023-02-18T01:19:39.575Z,10.60
2023-02-18T01:22:46.169Z,8.83
2023-02-18T01:25:54.521Z,13.50
2023-02-18T01:29:00.865Z,8.90
2023-02-18T01:32:07.536Z,6.53
2023-02-18T01:35:15.486Z,8.53
2023-02-18T01:38:21.782Z,8.33
2023-02-18T01:41:29.386Z,6.60
2023-02-18T01:44:35.990Z,7.83
2023-02-18T01:47:41.963Z,7.23
2023-02-18T01:50:52.367Z,7.60
2023-02-18T01:54:04.394Z,9.03
2023-02-18T01:57:15.011Z,8.93
2023-02-18T02:00:22.787Z,7.63
2023-02-18T02:03:29.327Z,7.17
2023-02-18T02:06:35.885Z,7.20
2023-02-18T02:09:44.062Z,6.80
2023-02-18T02:13:02.197Z,6.03
2023-02-18T02:16:14.300Z,5.37
2023-02-18T02:19:56.619Z,7.23
2023-02-18T02:23:47.881Z,6.80
2023-02-18T02:27:07.066Z,5.67
2023-02-18T02:30:48.301Z,5.77
2023-02-18T02:34:35.041Z,5.80
2023-02-18T02:37:50.694Z,5.93
2023-02-18T02:41:03.776Z,6.33
2023-02-18T02:44:20.316Z,5.87
2023-02-18T02:47:35.078Z,6.53
2023-02-18T02:50:47.444Z,5.90
2023-02-18T02:53:53.569Z,6.87
2023-02-18T02:57:31.644Z,6.40
2023-02-18T03:00:51.754Z,6.53
2023-02-18T03:04:28.719Z,9.23
2023-02-18T03:07:56.445Z,9.13
2023-02-18T03:11:07.084Z,11.57
2023-02-18T03:14:22.906Z,9.00
2023-02-18T03:17:34.031Z,11.63
2023-02-18T03:20:44.774Z,8.83
2023-02-18T03:23:57.603Z,10.70
2023-02-18T03:27:11.109Z,8.57
2023-02-18T03:30:25.763Z,12.00
2023-02-18T03:33:38.346Z,10.00
2023-02-18T03:36:45.586Z,8.13
2023-02-18T03:39:57.658Z,7.03
2023-02-18T03:43:03.977Z,6.10
2023-02-18T03:46:10.438Z,7.20
2023-02-18T03:49:17.090Z,6.93
2023-02-18T03:52:23.179Z,7.00
2023-02-18T03:55:30.767Z,6.80
2023-02-18T03:58:36.762Z,7.33
2023-02-18T04:01:43.032Z,9.13
2023-02-18T04:04:49.229Z,9.23
2023-02-18T04:07:55.353Z,11.53
2023-02-18T04:11:02.826Z,26.67
2023-02-18T04:14:09.635Z,20.50
2023-02-18T04:17:15.825Z,19.03
2023-02-18T04:20:22.681Z,19.20
2023-02-18T04:23:28.997Z,16.07
2023-02-18T04:26:36.703Z,15.10
2023-02-18T04:29:42.464Z,16.33
2023-02-18T04:32:48.694Z,14.50
2023-02-18T04:35:55.152Z,18.13
2023-02-18T04:39:01.469Z,19.13
2023-02-18T04:42:10.537Z,13.13
2023-02-18T04:45:17.110Z,13.40
2023-02-18T04:48:23.712Z,8.83
2023-02-18T04:51:29.922Z,7.97
2023-02-18T04:54:36.374Z,9.63
2023-02-18T04:57:43.695Z,8.73
2023-02-18T05:00:50.200Z,18.27
2023-02-18T05:03:56.232Z,26.47
2023-02-18T05:07:02.260Z,29.80
2023-02-18T05:10:10.040Z,23.03
2023-02-18T05:13:18.129Z,12.17
2023-02-18T05:16:24.322Z,14.07
2023-02-18T05:19:30.338Z,9.57
2023-02-18T05:22:36.714Z,11.80
2023-02-18T05:25:42.726Z,15.17
2023-02-18T05:28:50.232Z,20.27
2023-02-18T05:31:56.423Z,17.07
2023-02-18T05:35:02.386Z,21.27
2023-02-18T05:38:08.914Z,22.80
2023-02-18T05:41:15.213Z,25.30
2023-02-18T05:44:32.021Z,36.77
2023-02-18T05:47:38.352Z,38.87
2023-02-18T05:50:44.281Z,33.83
2023-02-18T05:53:50.581Z,32.97
2023-02-18T05:56:57.322Z,39.40
2023-02-18T06:00:06.347Z,43.60
2023-02-18T06:03:12.412Z,41.80
2023-02-18T06:06:18.731Z,37.53
2023-02-18T06:09:24.863Z,38.77
2023-02-18T06:12:31.591Z,22.67
2023-02-18T06:15:39.681Z,22.53
2023-02-18T06:18:46.104Z,22.63
2023-02-18T06:21:52.794Z,20.17
2023-02-18T06:24:59.267Z,18.37
2023-02-18T06:28:05.870Z,15.10
2023-02-18T06:31:13.610Z,20.07
2023-02-18T06:34:20.309Z,18.23
2023-02-18T06:37:26.679Z,21.17
2023-02-18T06:40:32.936Z,30.03
2023-02-18T06:43:39.662Z,41.57
2023-02-18T06:46:47.446Z,49.10
2023-02-18T06:49:53.688Z,31.67
2023-02-18T06:53:00.438Z,18.43
2023-02-18T06:56:06.874Z,11.87
2023-02-18T06:59:14.040Z,18.87
2023-02-18T07:02:21.809Z,12.83
2023-02-18T07:05:27.867Z,42.23
2023-02-18T07:08:36.344Z,16.90
2023-02-18T07:11:42.553Z,18.13
2023-02-18T07:14:48.521Z,28.13
2023-02-18T07:17:56.602Z,23.13
2023-02-18T07:21:03.169Z,22.00
2023-02-18T07:24:09.578Z,19.33
2023-02-18T07:27:15.975Z,19.70
2023-02-18T07:30:22.965Z,24.63
2023-02-18T07:33:30.659Z,45.03
2023-02-18T07:36:37.279Z,34.27
2023-02-18T07:39:44.403Z,28.97
2023-02-18T07:42:50.941Z,25.67
2023-02-18T07:45:57.156Z,28.43
2023-02-18T07:49:04.934Z,30.70
2023-02-18T07:52:11.526Z,27.20
2023-02-18T07:55:17.940Z,33.57
2023-02-18T07:58:25.694Z,39.03
2023-02-18T08:01:31.774Z,39.43
2023-02-18T08:04:39.298Z,34.63
2023-02-18T08:07:45.956Z,32.37
2023-02-18T08:10:54.083Z,40.43
2023-02-18T08:14:00.216Z,43.83
2023-02-18T08:17:06.424Z,61.17
2023-02-18T08:20:14.837Z,53.20
2023-02-18T08:23:22.605Z,51.13
2023-02-18T08:26:30.735Z,43.90
2023-02-18T08:29:37.434Z,27.57
2023-02-18T08:32:43.686Z,24.57
2023-02-18T08:35:53.337Z,30.80
2023-02-18T08:39:00.053Z,22.93
2023-02-18T08:42:06.585Z,24.83
2023-02-18T08:45:12.991Z,15.37
2023-02-18T08:48:20.574Z,15.50
2023-02-18T08:51:28.657Z,27.80
2023-02-18T08:54:34.608Z,22.30
2023-02-18T08:57:40.904Z,22.13
2023-02-18T09:00:47.676Z,34.13
2023-02-18T09:03:53.988Z,30.23
2023-02-18T09:07:01.478Z,33.50
2023-02-18T09:10:09.346Z,27.93
2023-02-18T09:13:15.679Z,31.63
2023-02-18T09:16:23.072Z,31.40
2023-02-18T09:19:31.072Z,31.73
2023-02-18T09:22:38.765Z,39.17
2023-02-18T09:25:45.273Z,60.87
2023-02-18T09:28:52.646Z,37.10
2023-02-18T09:32:01.640Z,22.53
2023-02-18T09:35:08.230Z,14.53
2023-02-18T09:38:18.197Z,20.03
2023-02-18T09:41:31.470Z,14.30
2023-02-18T09:44:43.618Z,11.73
2023-02-18T09:47:51.650Z,14.17
2023-02-18T09:50:58.003Z,8.40
2023-02-18T09:54:06.098Z,7.90
2023-02-18T09:57:24.142Z,6.60
2023-02-18T10:00:35.220Z,6.40
2023-02-18T10:03:43.913Z,6.67
2023-02-18T10:06:52.797Z,6.40
2023-02-18T10:10:05.251Z,5.17
2023-02-18T10:13:15.394Z,8.13
2023-02-18T10:16:23.485Z,7.13
2023-02-18T10:19:34.795Z,8.40
2023-02-18T10:22:41.146Z,6.37
2023-02-18T10:25:50.622Z,19.57
2023-02-18T10:28:57.287Z,9.97
2023-02-18T10:32:14.624Z,16.30
2023-02-18T10:35:25.983Z,11.17
2023-02-18T10:38:44.904Z,11.63
2023-02-18T10:42:02.450Z,7.20
2023-02-18T10:45:21.022Z,4.87
2023-02-18T10:48:43.844Z,5.73
2023-02-18T10:51:54.092Z,2.97
2023-02-18T10:55:05.269Z,6.00
2023-02-18T10:58:33.709Z,5.27
2023-02-18T11:01:40.393Z,4.47
2023-02-18T11:04:48.089Z,2.83
2023-02-18T11:07:57.952Z,5.13
2023-02-18T11:11:14.578Z,8.43
2023-02-18T11:14:44.615Z,5.07
2023-02-18T11:17:52.850Z,5.20
2023-02-18T11:21:00.773Z,2.57
2023-02-18T11:24:10.613Z,3.23
2023-02-18T11:27:29.678Z,3.07
2023-02-18T11:30:40.481Z,5.63
2023-02-18T11:33:51.741Z,5.70
2023-02-18T11:37:10.841Z,6.00
2023-02-18T11:40:24.241Z,4.07
2023-02-18T11:43:32.792Z,3.80
2023-02-18T11:46:40.360Z,4.90
2023-02-18T11:50:01.421Z,3.53
2023-02-18T11:53:28.831Z,5.13
2023-02-18T11:56:37.231Z,4.53
2023-02-18T11:59:44.878Z,8.00
2023-02-18T12:02:54.385Z,10.30
2023-02-18T12:06:05.998Z,7.03
2023-02-18T12:09:22.068Z,4.43
2023-02-18T12:12:31.724Z,5.37
2023-02-18T12:15:54.610Z,5.23
2023-02-18T12:19:21.440Z,2.90
2023-02-18T12:22:40.099Z,5.10
2023-02-18T12:25:56.304Z,5.90
2023-02-18T12:29:17.941Z,5.47
2023-02-18T12:32:37.730Z,8.60
2023-02-18T12:36:05.605Z,9.67
2023-02-18T12:39:18.636Z,9.67
2023-02-18T12:42:36.368Z,15.67
2023-02-18T12:46:08.665Z,9.03
2023-02-18T12:49:34.680Z,11.37
2023-02-18T12:52:52.902Z,6.67
2023-02-18T12:56:26.222Z,4.90
2023-02-18T12:59:58.366Z,6.07
2023-02-18T13:03:36.432Z,4.17
2023-02-18T13:06:55.220Z,3.13
2023-02-18T13:10:30.388Z,3.30
2023-02-18T13:13:41.953Z,3.60
2023-02-18T13:16:52.226Z,3.87
2023-02-18T13:20:04.270Z,3.57
2023-02-18T13:23:20.603Z,5.93
2023-02-18T13:26:31.280Z,5.97
2023-02-18T13:29:46.247Z,5.27
2023-02-18T13:33:06.871Z,6.47
2023-02-18T13:36:26.682Z,5.33
2023-02-18T13:39:34.110Z,4.13
2023-02-18T13:42:42.273Z,5.67
2023-02-18T13:46:05.061Z,12.17
2023-02-18T13:49:14.250Z,24.97
2023-02-18T13:52:21.805Z,7.20
2023-02-18T13:55:41.180Z,17.37
2023-02-18T13:58:51.923Z,15.90
2023-02-18T14:02:29.529Z,22.77
2023-02-18T14:05:41.647Z,13.23
2023-02-18T14:08:48.846Z,15.93
2023-02-18T14:11:57.953Z,18.57
2023-02-18T14:15:23.594Z,10.17
2023-02-18T14:18:57.256Z,43.27
2023-02-18T14:22:28.466Z,28.00
2023-02-18T14:25:42.038Z,20.07
2023-02-18T14:28:56.055Z,8.20
2023-02-18T14:32:05.438Z,10.03
2023-02-18T14:35:32.025Z,25.37
2023-02-18T14:38:49.860Z,27.03
2023-02-18T14:42:01.984Z,42.00
2023-02-18T14:45:23.396Z,38.10
2023-02-18T14:48:56.985Z,10.03
2023-02-18T14:52:07.608Z,32.93
2023-02-18T14:55:21.787Z,8.03
2023-02-18T14:58:33.182Z,12.63
2023-02-18T15:01:40.483Z,7.10
2023-02-18T15:04:48.139Z,7.50
2023-02-18T15:07:59.175Z,6.13
2023-02-18T15:11:07.644Z,5.37
2023-02-18T15:14:20.208Z,17.10
2023-02-18T15:17:28.557Z,20.97
2023-02-18T15:20:36.921Z,6.40
2023-02-18T15:23:43.568Z,23.17
2023-02-18T15:26:52.157Z,21.13
2023-02-18T15:30:00.125Z,11.73
2023-02-18T15:33:14.380Z,12.87
2023-02-18T15:36:22.283Z,8.47
2023-02-18T15:39:28.932Z,8.00
2023-02-18T15:42:37.605Z,13.07
2023-02-18T15:45:45.587Z,15.63
2023-02-18T15:48:52.596Z,21.30
2023-02-18T15:52:02.070Z,18.17
2023-02-18T15:55:15.027Z,27.93
2023-02-18T15:58:25.297Z,20.30
2023-02-18T16:01:32.262Z,23.13
2023-02-18T16:04:41.476Z,25.10
2023-02-18T16:07:54.639Z,21.90
2023-02-18T16:11:04.868Z,25.97
2023-02-18T16:14:25.552Z,25.70
2023-02-18T16:17:32.437Z,41.53
2023-02-18T16:20:42.052Z,58.60
2023-02-18T16:23:58.040Z,52.37
2023-02-18T16:27:08.157Z,44.43
2023-02-18T16:30:17.992Z,53.90
2023-02-18T16:33:24.522Z,56.47
2023-02-18T16:36:30.732Z,58.17
2023-02-18T16:39:38.647Z,60.13
2023-02-18T16:42:45.111Z,73.97
2023-02-18T16:45:53.324Z,51.70
2023-02-18T16:49:00.388Z,39.43
2023-02-18T16:52:09.461Z,23.03
2023-02-18T16:55:21.138Z,33.80
2023-02-18T16:58:27.794Z,27.97
2023-02-18T17:01:38.294Z,32.23
2023-02-18T17:04:44.742Z,25.03
2023-02-18T17:07:51.205Z,27.47
2023-02-18T17:11:00.045Z,40.43
2023-02-18T17:14:06.571Z,39.00
2023-02-18T17:17:14.766Z,46.70
2023-02-18T17:20:21.924Z,52.83
2023-02-18T17:23:28.294Z,68.73
2023-02-18T17:26:35.974Z,70.60
2023-02-18T17:29:42.546Z,84.70
2023-02-18T17:32:49.403Z,70.47
2023-02-18T17:35:55.651Z,49.50
2023-02-18T17:39:02.838Z,52.10
2023-02-18T17:45:44.410Z,45.53
2023-02-18T17:48:50.784Z,38.87
2023-02-18T17:51:58.177Z,38.40
2023-02-18T17:55:16.300Z,42.67
2023-02-18T17:58:24.123Z,37.33
2023-02-18T18:01:30.476Z,39.30
2023-02-18T18:04:36.758Z,36.47
2023-02-18T18:07:43.043Z,34.73
2023-02-18T18:10:52.632Z,24.20
2023-02-18T18:14:00.613Z,12.87
2023-02-18T18:17:11.399Z,12.93
2023-02-18T18:20:18.484Z,12.67
2023-02-18T18:23:24.782Z,14.67
2023-02-18T18:26:31.679Z,26.47
2023-02-18T18:29:39.705Z,30.03
2023-02-18T18:32:46.327Z,44.73
2023-02-18T18:35:54.403Z,22.93
2023-02-18T18:39:01.006Z,8.67
2023-02-18T18:42:07.807Z,8.47
2023-02-18T18:45:21.519Z,4.20
2023-02-18T18:48:27.755Z,73.20
2023-02-18T18:51:34.355Z,4.27
2023-02-18T18:54:41.410Z,9.67
2023-02-18T18:57:48.367Z,8.13
2023-02-18T19:00:58.797Z,5.90
2023-02-18T19:04:05.616Z,9.27
2023-02-18T19:07:12.149Z,8.33
2023-02-18T19:10:19.596Z,18.90
2023-02-18T19:13:28.597Z,16.50
2023-02-18T19:16:39.580Z,22.03
2023-02-18T19:19:45.893Z,22.77
2023-02-18T19:22:52.346Z,17.83
2023-02-18T19:25:59.286Z,19.93
2023-02-18T19:29:05.986Z,29.60
2023-02-18T19:32:13.793Z,27.10
2023-02-18T19:35:20.814Z,19.97
2023-02-18T19:38:27.068Z,23.47
2023-02-18T19:41:33.695Z,22.87
2023-02-18T19:44:40.313Z,25.53
2023-02-18T19:47:48.907Z,17.57
2023-02-18T19:50:55.538Z,18.93
2023-02-18T19:54:02.081Z,19.30
2023-02-18T19:57:08.917Z,24.50
2023-02-18T20:00:17.941Z,26.03
2023-02-18T20:03:25.664Z,26.90
2023-02-18T20:06:32.035Z,24.47
2023-02-18T20:09:38.397Z,26.87
2023-02-18T20:12:45.311Z,23.77
2023-02-18T20:15:51.948Z,23.40
2023-02-18T20:19:00.020Z,25.50
2023-02-18T20:22:07.532Z,34.17
2023-02-18T20:25:14.065Z,34.93
2023-02-18T20:28:20.432Z,27.77
2023-02-18T20:31:27.188Z,28.70
2023-02-18T20:34:35.156Z,28.80
2023-02-18T20:37:41.769Z,28.10
2023-02-18T20:40:48.388Z,26.20
2023-02-18T20:43:54.630Z,30.40
2023-02-18T20:47:01.029Z,25.20
2023-02-18T20:50:09.006Z,17.33
2023-02-18T20:53:15.413Z,15.97
2023-02-18T20:56:22.875Z,20.23
2023-02-18T20:59:30.209Z,15.60
2023-02-18T21:02:36.621Z,14.70
2023-02-18T21:05:44.027Z,13.50
2023-02-18T21:08:54.360Z,16.37
2023-02-18T21:12:00.239Z,16.27
2023-02-18T21:15:06.815Z,15.67
2023-02-18T21:18:12.964Z,15.47
2023-02-18T21:21:23.135Z,18.53
2023-02-18T21:24:29.512Z,20.37
2023-02-18T21:27:36.055Z,16.00
2023-02-18T21:30:44.173Z,13.67
2023-02-18T21:33:50.770Z,10.87
2023-02-18T21:36:58.537Z,11.60
2023-02-18T21:40:05.255Z,12.67
2023-02-18T21:43:12.474Z,15.20
2023-02-18T21:46:21.738Z,19.97
2023-02-18T21:49:27.953Z,22.87
2023-02-18T21:52:35.597Z,20.50
2023-02-18T21:55:42.670Z,19.50
2023-02-18T21:58:49.785Z,19.03
2023-02-18T22:01:57.409Z,15.50
2023-02-18T22:05:08.206Z,12.50
2023-02-18T22:08:16.006Z,11.93
2023-02-18T22:11:22.261Z,14.60
2023-02-18T22:14:28.790Z,16.40
2023-02-18T22:17:35.130Z,11.50
2023-02-18T22:20:41.609Z,8.57
2023-02-18T22:23:49.561Z,9.47
2023-02-18T22:26:56.026Z,7.93
2023-02-18T22:30:02.726Z,6.90
2023-02-18T22:33:09.340Z,6.43
2023-02-18T22:36:16.133Z,5.43
2023-02-18T22:39:24.499Z,6.23
2023-02-18T22:42:31.353Z,7.73
2023-02-18T22:45:37.736Z,11.10
2023-02-18T22:48:44.764Z,15.67
2023-02-18T22:51:53.746Z,13.57
2023-02-18T22:55:01.322Z,19.03
2023-02-18T22:58:07.573Z,20.70
2023-02-18T23:01:21.902Z,24.60
2023-02-18T23:04:28.610Z,17.83
2023-02-18T23:07:35.102Z,16.87
2023-02-18T23:10:42.844Z,17.77
2023-02-18T23:14:10.556Z,17.00
2023-02-18T23:17:18.076Z,12.00
2023-02-18T23:20:38.003Z,13.43
2023-02-18T23:23:44.874Z,11.60
2023-02-18T23:26:52.687Z,11.03
2023-02-18T23:29:59.125Z,16.93
2023-02-18T23:33:05.396Z,21.13
2023-02-18T23:36:14.041Z,12.67
2023-02-18T23:39:22.750Z,11.93
2023-02-18T23:42:30.594Z,15.17
2023-02-18T23:45:37.249Z,16.80
2023-02-18T23:48:43.888Z,16.37
2023-02-18T23:51:50.547Z,17.07
2023-02-18T23:54:56.892Z,18.47
2023-02-18T23:58:04.435Z,16.07
